Time;durP1;ratioP1;P1;durP2;ratioP2;P2;SDS_P1;SDS_P2;PMS_P1;PMS_P2;Temp;Humidity;BMP_temperature;BMP_pressure;BME280_temperature;BME280_humidity;BME280_pressure;Samples;Min_cycle;Max_cycle;Signal;HPM_P1;HPM_P2
2022/10/07 00:01:45;;;;;;;6.38;5.60;;;11.60;98.80;;;;;;5002716;28;20025;-55
2022/10/07 00:04:30;;;;;;;12.63;6.57;;;11.50;98.90;;;;;;5012298;28;20061;-62
2022/10/07 00:07:16;;;;;;;6.53;4.97;;;11.50;98.90;;;;;;4999453;28;20030;-57
2022/10/07 00:10:03;;;;;;;8.70;5.50;;;11.60;98.90;;;;;;5014069;28;20033;-53
2022/10/07 00:12:49;;;;;;;8.48;5.35;;;11.60;99.00;;;;;;5012117;28;20034;-60
2022/10/07 00:15:35;;;;;;;5.88;5.15;;;11.60;98.90;;;;;;5001023;28;20027;-61
2022/10/07 00:18:21;;;;;;;36.92;22.58;;;11.60;98.90;;;;;;5013871;28;20040;-62
2022/10/07 00:21:10;;;;;;;49.03;28.58;;;11.60;99.00;;;;;;5014455;28;20105;-61
2022/10/07 00:23:57;;;;;;;34.65;19.63;;;11.60;99.20;;;;;;5012882;28;20030;-61
2022/10/07 00:26:43;;;;;;;14.05;9.00;;;11.50;99.00;;;;;;5016181;28;20045;-65
2022/10/07 00:29:29;;;;;;;8.73;6.28;;;11.50;99.00;;;;;;5015237;28;20164;-63
2022/10/07 00:32:15;;;;;;;8.52;5.45;;;11.50;99.20;;;;;;5018769;28;20034;-62
2022/10/07 00:35:01;;;;;;;6.85;5.30;;;11.50;99.30;;;;;;5006358;28;20564;-60
2022/10/07 00:37:46;;;;;;;8.15;6.63;;;11.50;99.30;;;;;;5020049;28;20045;-61
2022/10/07 00:40:32;;;;;;;52.17;29.55;;;11.50;99.30;;;;;;5005719;28;20397;-61
2022/10/07 00:43:19;;;;;;;26.75;16.27;;;11.50;99.30;;;;;;5018668;28;20085;-61
2022/10/07 00:46:15;;;;;;;16.33;9.27;;;11.50;99.30;;;;;;5006008;28;20022;-62
2022/10/07 00:49:08;;;;;;;34.15;20.77;;;11.50;99.40;;;;;;5007262;28;20482;-63
2022/10/07 00:51:55;;;;;;;13.70;9.52;;;11.50;99.30;;;;;;5020307;28;20495;-61
2022/10/07 00:54:42;;;;;;;57.00;33.55;;;11.40;99.20;;;;;;5006704;28;20497;-62
2022/10/07 00:57:30;;;;;;;74.72;43.50;;;11.40;99.60;;;;;;5007417;28;20080;-61
2022/10/07 01:00:16;;;;;;;31.60;18.80;;;11.30;99.70;;;;;;5019419;28;20061;-60
2022/10/07 01:03:03;;;;;;;14.63;9.32;;;11.20;99.90;;;;;;5020205;28;20085;-61
2022/10/07 01:05:49;;;;;;;8.75;6.70;;;11.30;99.90;;;;;;5019427;28;20022;-62
2022/10/07 01:08:35;;;;;;;9.13;6.40;;;11.30;99.90;;;;;;5017650;28;20088;-61
2022/10/07 01:11:21;;;;;;;9.68;6.40;;;11.30;99.80;;;;;;5017194;28;20034;-62
2022/10/07 01:14:28;;;;;;;7.53;6.15;;;11.30;99.70;;;;;;5018451;28;20029;-61
2022/10/07 01:17:46;;;;;;;9.75;6.88;;;11.20;99.70;;;;;;5020158;28;20029;-63
2022/10/07 01:20:52;;;;;;;11.98;6.70;;;11.10;99.90;;;;;;5006035;28;20044;-63
2022/10/07 01:24:21;;;;;;;9.20;6.53;;;11.10;99.90;;;;;;5004732;28;20397;-62
2022/10/07 01:27:13;;;;;;;8.05;5.70;;;11.10;99.90;;;;;;5004399;28;20042;-61
2022/10/07 01:30:03;;;;;;;8.32;6.35;;;11.00;99.90;;;;;;5005045;28;20135;-61
2022/10/07 01:32:55;;;;;;;9.35;6.20;;;11.10;99.90;;;;;;5002161;28;20034;-63
2022/10/07 01:35:45;;;;;;;8.27;7.00;;;11.00;99.90;;;;;;5017052;28;20022;-61
2022/10/07 01:38:33;;;;;;;12.18;6.85;;;11.00;99.90;;;;;;5016660;28;20034;-64
2022/10/07 01:41:20;;;;;;;8.20;6.43;;;11.00;99.90;;;;;;5001230;28;20022;-62
2022/10/07 01:44:09;;;;;;;8.80;6.18;;;10.90;99.90;;;;;;5005058;28;20030;-61
2022/10/07 01:46:56;;;;;;;7.47;6.20;;;10.90;99.90;;;;;;5016533;28;20026;-62
2022/10/07 01:49:42;;;;;;;8.38;6.63;;;10.90;99.90;;;;;;5017251;28;20037;-61
2022/10/07 01:52:34;;;;;;;9.27;5.82;;;10.90;99.90;;;;;;5020520;28;20025;-63
2022/10/07 01:56:02;;;;;;;9.00;6.82;;;10.80;99.90;;;;;;5021176;28;20401;-62
2022/10/07 01:59:12;;;;;;;10.02;6.13;;;10.80;99.90;;;;;;5024010;28;20045;-60
2022/10/07 02:02:23;;;;;;;9.50;6.18;;;10.70;99.90;;;;;;5012616;28;20026;-61
2022/10/07 02:05:35;;;;;;;8.20;5.70;;;10.80;99.90;;;;;;5020484;28;20022;-62
2022/10/07 02:08:28;;;;;;;7.57;6.65;;;10.70;99.90;;;;;;5024422;28;20041;-62
2022/10/07 02:11:26;;;;;;;8.70;5.85;;;10.70;99.90;;;;;;5024878;28;20030;-61
2022/10/07 02:14:25;;;;;;;8.02;6.22;;;10.80;99.90;;;;;;5012856;28;20086;-62
2022/10/07 02:17:20;;;;;;;8.93;6.13;;;10.70;99.90;;;;;;5026903;28;20026;-61
2022/10/07 02:20:08;;;;;;;;;;;10.70;99.90;;;;;;4999056;28;20426;-63
2022/10/07 02:22:59;;;;;;;8.10;6.45;;;10.70;99.90;;;;;;5028032;28;19963;-63
2022/10/07 02:25:48;;;;;;;8.02;6.32;;;10.50;99.90;;;;;;5026538;28;20046;-62
2022/10/07 02:28:39;;;;;;;7.05;5.90;;;10.50;99.90;;;;;;5001287;28;20033;-61
2022/10/07 02:31:32;;;;;;;10.30;6.40;;;10.50;99.90;;;;;;5026280;28;20030;-63
2022/10/07 02:34:22;;;;;;;9.30;6.22;;;10.50;99.90;;;;;;5013677;28;20025;-58
2022/10/07 02:37:17;;;;;;;8.32;6.13;;;10.40;99.90;;;;;;5022744;28;20025;-61
2022/10/07 02:40:04;;;;;;;7.53;5.65;;;10.50;99.90;;;;;;5020903;28;20030;-62
2022/10/07 02:43:02;;;;;;;8.52;6.00;;;10.50;99.90;;;;;;5020693;28;20026;-62
2022/10/07 02:45:53;;;;;;;9.73;5.97;;;10.50;99.90;;;;;;5021247;28;20065;-63
2022/10/07 02:49:01;;;;;;;10.82;6.32;;;10.50;99.90;;;;;;5019638;28;20030;-62
2022/10/07 02:52:05;;;;;;;8.50;5.82;;;10.40;99.90;;;;;;5005576;28;20346;-63
2022/10/07 02:55:06;;;;;;;8.10;6.25;;;10.40;99.90;;;;;;5018683;28;20034;-65
2022/10/07 02:58:00;;;;;;;7.22;5.65;;;10.40;99.90;;;;;;5016890;28;20030;-62
2022/10/07 03:00:51;;;;;;;6.95;5.68;;;10.50;99.90;;;;;;5017983;28;20569;-61
2022/10/07 03:03:38;;;;;;;8.43;5.95;;;10.40;99.90;;;;;;5016990;28;20042;-62
2022/10/07 03:06:28;;;;;;;8.52;6.00;;;10.40;99.90;;;;;;5017441;28;20026;-62
2022/10/07 03:09:14;;;;;;;10.27;5.97;;;10.30;99.90;;;;;;5002866;28;20033;-61
2022/10/07 03:12:00;;;;;;;7.22;5.47;;;10.30;99.90;;;;;;5017533;28;20033;-59
2022/10/07 03:14:48;;;;;;;10.82;5.95;;;10.10;99.90;;;;;;5017693;28;20022;-61
2022/10/07 03:17:34;;;;;;;7.85;5.57;;;10.00;99.90;;;;;;5003235;28;20076;-62
2022/10/07 03:20:21;;;;;;;8.05;6.20;;;10.00;99.90;;;;;;4987987;28;20121;-62
2022/10/07 03:23:08;;;;;;;6.22;5.28;;;10.10;99.90;;;;;;4990527;28;20113;-60
2022/10/07 03:25:57;;;;;;;8.85;6.47;;;10.00;99.90;;;;;;5003468;28;20061;-62
2022/10/07 03:28:42;;;;;;;6.60;5.63;;;10.10;99.90;;;;;;5003512;28;20026;-61
2022/10/07 03:31:29;;;;;;;10.52;6.30;;;10.10;99.90;;;;;;4990460;28;20030;-62
2022/10/07 03:34:15;;;;;;;8.32;6.18;;;10.10;99.90;;;;;;5019852;28;20054;-61
2022/10/07 03:37:02;;;;;;;8.73;6.25;;;10.10;99.90;;;;;;5024027;28;20108;-62
2022/10/07 03:39:48;;;;;;;9.05;6.32;;;10.00;99.90;;;;;;5019053;28;20026;-62
2022/10/07 03:42:34;;;;;;;7.10;5.78;;;10.00;99.90;;;;;;5004332;28;20066;-62
2022/10/07 03:45:21;;;;;;;8.93;5.55;;;9.90;99.90;;;;;;5007996;28;20030;-62
2022/10/07 03:48:07;;;;;;;7.70;5.80;;;9.90;99.90;;;;;;5006045;28;20101;-62
2022/10/07 03:50:59;;;;;;;7.40;5.57;;;9.90;99.90;;;;;;5003555;28;20033;-62
2022/10/07 03:53:45;;;;;;;8.95;5.82;;;9.90;99.90;;;;;;5005536;28;20101;-62
2022/10/07 03:56:31;;;;;;;7.85;6.03;;;9.90;99.90;;;;;;5006465;28;20513;-60
2022/10/07 03:59:17;;;;;;;10.13;5.97;;;10.00;99.90;;;;;;5004666;28;20038;-61
2022/10/07 04:02:03;;;;;;;6.82;5.95;;;9.90;99.90;;;;;;5003342;28;20460;-61
2022/10/07 04:04:52;;;;;;;8.88;5.82;;;9.90;99.90;;;;;;5005930;28;20037;-61
2022/10/07 04:07:38;;;;;;;9.88;6.55;;;9.80;99.90;;;;;;5023382;28;20026;-62
2022/10/07 04:10:24;;;;;;;7.90;5.93;;;9.70;99.90;;;;;;5020870;28;20041;-62
2022/10/07 04:13:10;;;;;;;8.07;6.60;;;9.60;99.90;;;;;;5007594;28;20041;-59
2022/10/07 04:15:56;;;;;;;49.95;27.75;;;9.50;99.90;;;;;;5011636;28;20026;-62
2022/10/07 04:18:42;;;;;;;20.70;13.85;;;9.50;99.90;;;;;;5009180;28;20402;-61
2022/10/07 04:21:28;;;;;;;13.15;7.97;;;9.50;99.90;;;;;;5009066;28;20026;-62
2022/10/07 04:24:14;;;;;;;9.70;6.45;;;9.50;99.90;;;;;;5025834;28;20467;-61
2022/10/07 04:27:00;;;;;;;9.07;6.47;;;9.50;99.90;;;;;;5009701;28;20056;-60
2022/10/07 04:29:47;;;;;;;9.73;6.10;;;9.40;99.90;;;;;;4998355;28;20026;-59
2022/10/07 04:32:33;;;;;;;8.90;6.28;;;9.40;99.90;;;;;;5026449;28;20560;-62
2022/10/07 04:35:22;;;;;;;10.65;6.57;;;9.40;99.90;;;;;;5027481;28;20045;-62
2022/10/07 04:38:09;;;;;;;8.45;6.30;;;9.40;99.90;;;;;;5011096;28;20057;-62
2022/10/07 04:40:55;;;;;;;8.30;6.13;;;9.40;99.90;;;;;;5024767;28;20044;-58
2022/10/07 04:43:48;;;;;;;7.07;6.25;;;9.40;99.90;;;;;;5026431;28;20025;-60
2022/10/07 04:46:35;;;;;;;8.20;6.50;;;9.30;99.90;;;;;;5027024;28;20078;-61
2022/10/07 04:49:21;;;;;;;9.70;6.47;;;9.30;99.90;;;;;;5025813;28;20493;-60
2022/10/07 04:52:06;;;;;;;9.02;5.70;;;9.30;99.90;;;;;;5021673;28;20433;-62
2022/10/07 04:54:53;;;;;;;9.30;6.55;;;9.20;99.90;;;;;;5022249;28;20034;-61
2022/10/07 04:57:42;;;;;;;7.53;6.50;;;9.20;99.90;;;;;;5007805;28;20030;-63
2022/10/07 05:00:27;;;;;;;9.05;6.57;;;9.10;99.90;;;;;;5008911;28;20093;-62
2022/10/07 05:03:15;;;;;;;8.77;6.38;;;9.10;99.90;;;;;;5021173;28;20029;-62
2022/10/07 05:06:02;;;;;;;8.98;6.63;;;9.20;99.90;;;;;;5008206;28;20044;-61
2022/10/07 05:08:48;;;;;;;7.93;6.68;;;9.20;99.90;;;;;;5008910;28;20030;-62
2022/10/07 05:11:36;;;;;;;8.77;6.47;;;9.20;99.90;;;;;;5022726;28;20057;-63
2022/10/07 05:14:22;;;;;;;7.65;6.18;;;9.10;99.90;;;;;;5007742;28;20026;-63
2022/10/07 05:17:09;;;;;;;9.27;7.05;;;9.10;99.90;;;;;;5021291;28;20030;-61
2022/10/07 05:19:55;;;;;;;12.20;6.60;;;9.10;99.90;;;;;;5021362;28;20387;-62
2022/10/07 05:22:41;;;;;;;8.43;6.43;;;9.20;99.90;;;;;;5006814;28;20030;-61
2022/10/07 05:25:26;;;;;;;11.40;7.28;;;9.20;99.90;;;;;;5020049;28;20041;-61
2022/10/07 05:28:14;;;;;;;6.88;6.15;;;9.20;99.90;;;;;;5004725;28;20030;-63
2022/10/07 05:31:02;;;;;;;8.05;5.47;;;9.20;99.90;;;;;;5003301;28;20034;-59
2022/10/07 05:33:48;;;;;;;6.65;5.00;;;9.20;99.90;;;;;;5005998;28;20041;-62
2022/10/07 05:36:35;;;;;;;9.40;5.85;;;9.20;99.90;;;;;;5006649;28;20065;-61
2022/10/07 05:39:20;;;;;;;8.95;5.93;;;9.20;99.90;;;;;;5005214;28;20026;-62
2022/10/07 05:42:07;;;;;;;6.97;5.25;;;9.30;99.90;;;;;;5018978;28;20520;-62
2022/10/07 05:44:52;;;;;;;7.07;5.93;;;9.30;99.90;;;;;;5003609;28;20029;-63
2022/10/07 05:47:38;;;;;;;8.65;6.38;;;9.30;99.90;;;;;;5012371;28;20085;-60
2022/10/07 05:50:25;;;;;;;49.03;10.43;;;9.30;99.90;;;;;;5020079;28;20108;-60
2022/10/07 05:53:14;;;;;;;10.30;5.93;;;9.30;99.90;;;;;;5008453;28;20091;-62
2022/10/07 05:56:08;;;;;;;9.18;5.80;;;9.20;99.90;;;;;;4995162;28;20022;-63
2022/10/07 05:58:56;;;;;;;6.13;5.53;;;9.00;99.90;;;;;;5019420;28;20026;-62
2022/10/07 06:01:42;;;;;;;8.07;6.47;;;9.00;99.90;;;;;;5019145;28;20029;-63
2022/10/07 06:04:28;;;;;;;9.23;6.55;;;9.20;99.90;;;;;;5016759;28;20030;-62
2022/10/07 06:07:15;;;;;;;7.85;6.40;;;9.10;99.90;;;;;;5006841;28;20029;-61
2022/10/07 06:13:06;;;;;;;8.57;6.70;;;9.20;99.90;;;;;;5005502;28;20030;-60
2022/10/07 06:15:52;;;;;;;7.43;6.63;;;9.20;99.90;;;;;;5019674;28;20057;-61
2022/10/07 06:18:38;;;;;;;8.50;6.13;;;9.20;99.90;;;;;;5021192;28;20490;-61
2022/10/07 06:21:26;;;;;;;8.25;6.15;;;9.20;99.90;;;;;;5018421;28;20105;-61
2022/10/07 06:24:12;;;;;;;11.07;7.25;;;9.30;99.90;;;;;;5004795;28;20018;-63
2022/10/07 06:26:58;;;;;;;8.68;6.20;;;9.40;99.90;;;;;;5018554;28;20033;-62
2022/10/07 06:29:44;;;;;;;7.75;6.60;;;9.40;99.90;;;;;;5017871;28;20112;-62
2022/10/07 06:32:31;;;;;;;10.38;6.32;;;9.40;99.90;;;;;;5015204;28;20030;-62
2022/10/07 06:35:17;;;;;;;7.55;6.03;;;9.40;99.90;;;;;;5019585;28;20045;-62
2022/10/07 06:38:04;;;;;;;9.45;6.82;;;9.40;99.90;;;;;;5018667;28;20036;-62
2022/10/07 06:41:01;;;;;;;13.10;6.88;;;9.50;99.90;;;;;;5019678;28;20026;-61
2022/10/07 06:43:47;;;;;;;14.15;6.75;;;9.50;99.90;;;;;;5019399;28;20069;-62
2022/10/07 06:46:33;;;;;;;10.35;6.80;;;9.60;99.90;;;;;;5013454;28;20025;-61
2022/10/07 06:49:19;;;;;;;11.18;8.20;;;9.60;99.90;;;;;;5020199;28;20037;-61
2022/10/07 06:52:05;;;;;;;13.13;8.48;;;9.70;99.90;;;;;;5020444;28;20402;-61
2022/10/07 06:54:51;;;;;;;14.52;8.60;;;9.70;99.90;;;;;;5022615;28;20026;-61
2022/10/07 06:57:37;;;;;;;17.15;8.77;;;9.70;99.90;;;;;;4995184;28;20048;-61
2022/10/07 07:00:23;;;;;;;13.48;8.75;;;9.80;99.90;;;;;;5019779;28;20044;-61
2022/10/07 07:03:09;;;;;;;12.70;8.48;;;9.80;99.90;;;;;;5017927;28;20041;-61
2022/10/07 07:05:55;;;;;;;10.75;8.32;;;9.90;99.90;;;;;;5004945;28;20513;-62
2022/10/07 07:08:41;;;;;;;16.90;11.73;;;9.90;99.90;;;;;;4990964;28;20049;-62
2022/10/07 07:11:36;;;;;;;17.75;11.57;;;9.90;99.90;;;;;;5019588;28;20029;-61
2022/10/07 07:14:24;;;;;;;13.77;9.43;;;10.00;99.90;;;;;;5020657;28;20033;-60
2022/10/07 07:17:10;;;;;;;14.82;8.77;;;9.90;99.90;;;;;;5004289;28;20038;-61
2022/10/07 07:19:56;;;;;;;17.95;8.75;;;10.00;99.90;;;;;;5018259;28;20033;-64
2022/10/07 07:22:43;;;;;;;12.70;8.35;;;10.20;99.90;;;;;;5004895;28;20030;-62
2022/10/07 07:25:30;;;;;;;12.57;7.47;;;10.20;99.90;;;;;;5004486;28;20037;-60
2022/10/07 07:28:17;;;;;;;14.40;8.27;;;10.30;99.90;;;;;;5020513;28;20030;-62
2022/10/07 07:31:12;;;;;;;14.90;7.97;;;10.40;99.90;;;;;;5020186;28;20034;-61
2022/10/07 07:34:01;;;;;;;14.77;8.15;;;10.60;99.90;;;;;;5020075;28;20049;-62
2022/10/07 07:36:50;;;;;;;16.45;9.43;;;10.70;99.90;;;;;;5006791;28;20117;-62
2022/10/07 07:39:36;;;;;;;18.20;10.52;;;10.70;99.90;;;;;;5022652;28;20490;-61
2022/10/07 07:42:22;;;;;;;18.05;10.13;;;10.80;99.90;;;;;;5023935;28;20022;-61
2022/10/07 07:45:09;;;;;;;23.25;13.82;;;10.80;99.90;;;;;;5023793;28;20096;-63
2022/10/07 07:47:56;;;;;;;21.25;12.07;;;10.90;99.90;;;;;;5024349;28;20093;-63
2022/10/07 07:50:42;;;;;;;19.13;10.18;;;11.00;99.90;;;;;;5023376;28;20045;-60
2022/10/07 07:53:28;;;;;;;15.35;8.48;;;11.20;99.90;;;;;;4997804;28;20026;-62
2022/10/07 07:56:16;;;;;;;15.35;8.52;;;11.30;99.90;;;;;;5019218;28;20050;-61
2022/10/07 07:59:03;;;;;;;11.13;6.72;;;11.40;99.90;;;;;;5003319;28;20089;-61
2022/10/07 08:01:49;;;;;;;14.52;8.20;;;11.40;99.90;;;;;;5011712;28;20026;-62
2022/10/07 08:04:35;;;;;;;13.70;8.43;;;11.50;99.90;;;;;;5022703;28;20112;-62
2022/10/07 08:07:21;;;;;;;14.90;8.55;;;11.50;99.90;;;;;;5020228;28;20030;-53
2022/10/07 08:10:07;;;;;;;13.45;7.82;;;11.60;99.90;;;;;;5000093;28;20088;-54
2022/10/07 08:12:54;;;;;;;10.93;7.57;;;11.70;99.90;;;;;;5014185;28;20112;-53
2022/10/07 08:15:40;;;;;;;17.60;11.43;;;11.80;99.90;;;;;;5012984;28;20026;-60
2022/10/07 08:18:26;;;;;;;12.77;8.93;;;11.90;99.90;;;;;;4981838;28;20896;-54
2022/10/07 08:21:13;;;;;;;13.27;7.53;;;12.00;99.90;;;;;;4994939;28;20037;-57
2022/10/07 08:24:02;;;;;;;13.77;7.95;;;12.10;99.90;;;;;;4996643;28;20049;-58
2022/10/07 08:26:49;;;;;;;13.70;6.85;;;12.10;99.90;;;;;;4996607;28;20023;-58
2022/10/07 08:29:35;;;;;;;12.75;6.88;;;12.10;99.90;;;;;;4980071;28;20022;-60
2022/10/07 08:32:21;;;;;;;12.35;7.30;;;12.00;99.90;;;;;;4995827;28;20035;-57
2022/10/07 08:35:07;;;;;;;11.18;6.80;;;12.10;99.70;;;;;;4996351;28;20058;-59
2022/10/07 08:37:53;;;;;;;15.88;7.97;;;12.10;99.90;;;;;;4996603;28;20449;-60
2022/10/07 08:40:49;;;;;;;13.48;9.35;;;12.10;99.90;;;;;;4995346;28;20023;-58
2022/10/07 08:43:45;;;;;;;13.18;7.63;;;12.20;99.90;;;;;;4995683;28;20030;-58
2022/10/07 08:46:33;;;;;;;13.30;7.53;;;12.40;99.90;;;;;;4997330;28;20113;-59
2022/10/07 08:49:27;;;;;;;16.75;7.75;;;12.40;99.90;;;;;;5023874;28;20505;-58
2022/10/07 08:52:40;;;;;;;13.75;7.07;;;12.50;99.90;;;;;;5022081;28;20417;-59
2022/10/07 08:55:39;;;;;;;13.18;6.70;;;12.70;99.80;;;;;;5021157;28;20033;-58
2022/10/07 08:58:31;;;;;;;12.55;7.63;;;12.80;99.80;;;;;;4998279;28;20022;-58
2022/10/07 09:01:33;;;;;;;16.23;6.97;;;12.90;99.70;;;;;;5018277;28;20026;-58
2022/10/07 09:04:51;;;;;;;9.93;5.72;;;13.10;99.30;;;;;;5019162;28;20108;-56
2022/10/07 09:07:48;;;;;;;12.75;6.55;;;13.20;99.10;;;;;;5005678;28;20045;-56
2022/10/07 09:10:48;;;;;;;15.80;5.80;;;13.30;99.10;;;;;;5020855;28;20081;-57
2022/10/07 09:13:39;;;;;;;12.60;5.82;;;13.50;98.40;;;;;;5025072;28;20025;-59
2022/10/07 09:16:34;;;;;;;20.33;12.93;;;13.60;98.30;;;;;;5014809;28;20087;-57
2022/10/07 09:19:32;;;;;;;21.00;6.20;;;13.70;98.30;;;;;;5019830;28;20121;-59
2022/10/07 09:22:41;;;;;;;10.35;5.82;;;13.80;97.70;;;;;;5026023;28;20009;-61
2022/10/07 09:25:29;;;;;;;12.48;5.97;;;14.00;97.70;;;;;;5033043;28;20053;-61
2022/10/07 09:28:18;;;;;;;16.38;6.30;;;14.10;97.80;;;;;;5007023;28;20030;-62
2022/10/07 09:31:04;;;;;;;10.27;5.50;;;14.10;97.30;;;;;;5017516;28;20081;-61
2022/10/07 09:33:52;;;;;;;10.50;5.22;;;14.30;97.10;;;;;;5014714;28;20045;-62
2022/10/07 09:37:07;;;;;;;11.57;5.07;;;14.30;97.00;;;;;;5015071;28;20071;-63
2022/10/07 09:40:19;;;;;;;10.32;5.53;;;14.40;97.00;;;;;;5020851;28;20022;-61
2022/10/07 09:43:12;;;;;;;10.93;4.75;;;14.50;97.00;;;;;;5006867;28;20060;-60
2022/10/07 09:46:00;;;;;;;16.42;6.00;;;14.70;96.20;;;;;;5023954;28;20025;-62
2022/10/07 09:48:54;;;;;;;10.95;5.93;;;14.80;95.90;;;;;;5000632;28;20026;-62
2022/10/07 09:51:40;;;;;;;9.40;4.55;;;14.90;96.00;;;;;;5009958;28;20048;-61
2022/10/07 09:54:27;;;;;;;12.88;4.85;;;14.70;96.20;;;;;;5025888;28;20029;-61
2022/10/07 09:57:33;;;;;;;7.60;4.13;;;14.80;96.40;;;;;;4999542;28;20377;-57
2022/10/07 10:00:21;;;;;;;9.02;4.10;;;15.10;96.10;;;;;;5023211;28;20092;-58
2022/10/07 10:03:07;;;;;;;6.93;3.72;;;15.20;95.70;;;;;;5015256;28;20030;-56
2022/10/07 10:05:58;;;;;;;7.18;4.70;;;15.40;95.50;;;;;;5019058;28;20105;-59
2022/10/07 10:08:53;;;;;;;8.98;4.07;;;15.60;95.40;;;;;;5009394;28;20032;-60
2022/10/07 10:11:39;;;;;;;8.90;3.92;;;15.80;94.70;;;;;;5014768;28;20129;-51
2022/10/07 10:14:45;;;;;;;8.77;3.80;;;16.00;94.20;;;;;;5018888;28;20021;-53
2022/10/07 10:17:34;;;;;;;9.55;4.05;;;16.00;93.70;;;;;;5000464;28;20474;-52
2022/10/07 10:20:31;;;;;;;12.38;4.10;;;16.10;93.80;;;;;;5030347;28;20025;-53
2022/10/07 10:23:35;;;;;;;8.18;2.88;;;16.20;93.30;;;;;;5018994;28;20022;-54
2022/10/07 10:26:29;;;;;;;8.47;3.60;;;16.30;91.70;;;;;;5032641;28;20025;-54
2022/10/07 10:29:36;;;;;;;8.18;3.25;;;16.30;91.80;;;;;;5033236;28;20081;-54
2022/10/07 10:32:47;;;;;;;9.68;3.70;;;16.40;91.90;;;;;;5032446;28;20025;-50
2022/10/07 10:35:57;;;;;;;10.85;3.35;;;16.50;91.30;;;;;;5033551;28;20084;-51
2022/10/07 10:39:00;;;;;;;9.48;3.35;;;16.50;91.40;;;;;;5034348;28;20029;-56
2022/10/07 10:41:52;;;;;;;7.82;2.65;;;16.70;90.80;;;;;;5033558;28;20494;-49
2022/10/07 10:44:57;;;;;;;5.22;2.63;;;16.70;90.60;;;;;;5032165;28;20026;-50
2022/10/07 10:48:10;;;;;;;7.35;3.00;;;16.70;90.20;;;;;;5032640;28;20033;-51
2022/10/07 10:51:09;;;;;;;7.68;3.15;;;16.70;90.10;;;;;;5032689;28;20080;-53
2022/10/07 10:54:04;;;;;;;7.32;3.30;;;16.70;89.90;;;;;;5032453;28;20116;-51
2022/10/07 10:57:30;;;;;;;14.13;3.72;;;16.80;90.40;;;;;;5032903;28;20129;-51
2022/10/07 11:00:18;;;;;;;7.55;3.53;;;16.80;90.10;;;;;;5026544;28;20112;-53
2022/10/07 11:03:17;;;;;;;5.85;2.70;;;16.90;90.00;;;;;;5032475;28;20036;-51
2022/10/07 11:06:09;;;;;;;6.60;2.70;;;17.10;88.10;;;;;;5032623;28;20025;-52
2022/10/07 11:08:57;;;;;;;8.48;3.00;;;17.10;88.60;;;;;;5032117;28;20104;-50
2022/10/07 11:11:44;;;;;;;8.65;3.08;;;17.10;88.40;;;;;;5032072;28;20060;-54
2022/10/07 11:14:31;;;;;;;5.53;3.00;;;17.00;89.20;;;;;;5031207;28;20021;-58
2022/10/07 11:17:23;;;;;;;5.28;2.90;;;17.00;89.10;;;;;;5032233;28;20033;-51
2022/10/07 11:20:30;;;;;;;7.05;3.30;;;17.10;89.80;;;;;;5032611;28;20025;-54
2022/10/07 11:23:40;;;;;;;6.40;3.30;;;17.10;89.40;;;;;;5018451;28;20592;-50
2022/10/07 11:26:37;;;;;;;5.72;2.97;;;17.30;88.30;;;;;;5032644;28;20652;-51
2022/10/07 11:29:38;;;;;;;6.55;2.70;;;17.20;88.10;;;;;;5032289;28;20108;-53
2022/10/07 11:32:27;;;;;;;10.52;2.85;;;17.20;88.20;;;;;;5031634;28;20045;-55
2022/10/07 11:35:24;;;;;;;7.95;4.00;;;17.20;88.70;;;;;;5031872;28;20025;-56
2022/10/07 11:38:13;;;;;;;5.15;2.88;;;17.30;89.20;;;;;;5031876;28;20041;-58
2022/10/07 11:41:07;;;;;;;6.53;2.63;;;17.50;88.80;;;;;;5031504;28;20026;-55
2022/10/07 11:43:57;;;;;;;7.28;3.20;;;17.40;88.40;;;;;;5030762;28;20025;-55
2022/10/07 11:46:44;;;;;;;7.60;3.50;;;17.40;88.50;;;;;;5031631;28;20486;-53
2022/10/07 11:49:42;;;;;;;7.00;2.88;;;17.40;87.90;;;;;;5031747;28;20029;-54
2022/10/07 11:52:31;;;;;;;4.78;3.13;;;17.50;87.60;;;;;;5031062;28;20026;-51
2022/10/07 11:55:27;;;;;;;6.93;2.80;;;17.60;87.30;;;;;;5031418;28;20493;-57
2022/10/07 11:58:26;;;;;;;7.28;2.85;;;17.60;87.40;;;;;;5031403;28;20493;-54
2022/10/07 12:01:25;;;;;;;7.00;2.83;;;17.60;87.50;;;;;;5032307;28;20026;-52
2022/10/07 12:04:20;;;;;;;3.90;2.97;;;17.50;87.50;;;;;;5032854;28;20072;-57
2022/10/07 12:07:34;;;;;;;5.32;2.72;;;17.40;86.80;;;;;;5032489;28;20037;-56
2022/10/07 12:10:26;;;;;;;7.55;2.85;;;17.40;88.00;;;;;;5031502;28;20029;-51
2022/10/07 12:13:12;;;;;;;9.25;3.92;;;17.50;88.40;;;;;;5030984;28;20037;-56
2022/10/07 12:16:27;;;;;;;6.80;2.88;;;17.50;88.40;;;;;;5031409;28;20496;-57
2022/10/07 12:19:18;;;;;;;11.50;3.47;;;17.70;88.00;;;;;;5031568;28;20108;-53
2022/10/07 12:22:13;;;;;;;4.68;3.47;;;17.80;87.90;;;;;;5016914;28;20030;-55
2022/10/07 12:25:41;;;;;;;6.20;2.78;;;17.80;87.80;;;;;;5031826;28;20021;-50
2022/10/07 12:28:35;;;;;;;7.22;3.40;;;17.80;88.00;;;;;;5035012;28;20033;-50
2022/10/07 12:31:21;;;;;;;10.75;3.08;;;18.20;87.60;;;;;;5020325;28;20018;-51
2022/10/07 12:34:08;;;;;;;9.18;3.05;;;18.30;87.10;;;;;;5034728;28;20029;-48
2022/10/07 12:37:32;;;;;;;8.45;2.92;;;18.30;86.60;;;;;;5033082;28;20342;-54
2022/10/07 12:40:28;;;;;;;6.70;3.00;;;18.50;86.30;;;;;;5033553;28;20263;-54
2022/10/07 12:43:33;;;;;;;5.50;3.13;;;18.60;86.40;;;;;;5035265;28;20097;-51
2022/10/07 12:46:22;;;;;;;9.20;3.57;;;18.60;87.20;;;;;;5035085;28;20057;-55
2022/10/07 12:49:39;;;;;;;6.05;3.20;;;18.80;87.00;;;;;;5034437;28;20036;-52
2022/10/07 12:52:32;;;;;;;8.30;3.58;;;18.70;87.00;;;;;;5034845;28;20030;-53
2022/10/07 12:55:27;;;;;;;6.32;3.08;;;18.60;87.50;;;;;;5034478;28;20033;-51
2022/10/07 13:02:14;;;;;;;7.93;3.08;;;18.80;86.60;;;;;;5033710;28;20370;-58
2022/10/07 13:05:38;;;;;;;8.65;3.40;;;19.20;85.50;;;;;;5035774;28;20021;-52
2022/10/07 13:09:01;;;;;;;9.63;3.88;;;19.10;86.00;;;;;;5034627;28;20397;-48
2022/10/07 13:12:08;;;;;;;9.55;3.38;;;19.40;85.20;;;;;;5033717;28;20021;-54
2022/10/07 13:15:01;;;;;;;6.20;3.10;;;19.60;85.40;;;;;;5033442;28;20520;-53
2022/10/07 13:17:55;;;;;;;6.05;3.33;;;19.70;85.00;;;;;;5034960;28;20033;-51
2022/10/07 13:21:06;;;;;;;8.60;3.25;;;19.60;85.90;;;;;;5033859;28;20559;-56
2022/10/07 13:23:54;;;;;;;4.90;3.30;;;19.90;85.10;;;;;;5034121;28;20025;-55
2022/10/07 13:26:44;;;;;;;6.97;3.10;;;20.00;85.30;;;;;;5006381;28;20014;-53
2022/10/07 13:29:34;;;;;;;5.80;3.45;;;20.00;83.70;;;;;;5019974;28;20045;-54
2022/10/07 13:32:29;;;;;;;6.80;3.13;;;19.90;84.50;;;;;;5033893;28;20029;-50
2022/10/07 13:35:36;;;;;;;8.65;3.20;;;19.90;84.60;;;;;;5019138;28;20105;-57
2022/10/07 13:38:27;;;;;;;8.70;3.55;;;19.90;84.50;;;;;;5016126;28;20064;-57
2022/10/07 13:41:18;;;;;;;4.30;2.90;;;20.10;84.50;;;;;;5017177;28;20520;-52
2022/10/07 13:44:05;;;;;;;7.85;3.33;;;20.10;84.10;;;;;;5016280;28;20061;-54
2022/10/07 13:47:00;;;;;;;9.10;3.30;;;19.80;84.70;;;;;;5013938;28;20513;-52
2022/10/07 13:49:48;;;;;;;;;;;19.90;84.70;;;;;;5014121;28;20038;-54
2022/10/07 13:52:38;;;;;;;8.70;3.60;;;20.20;84.40;;;;;;5012954;28;20362;-57
2022/10/07 13:55:29;;;;;;;7.78;3.70;;;20.50;84.00;;;;;;5013547;28;20037;-56
2022/10/07 13:58:15;;;;;;;7.82;3.50;;;20.60;83.00;;;;;;5015242;28;20501;-51
2022/10/07 14:01:04;;;;;;;10.63;3.70;;;20.50;82.70;;;;;;5012839;28;20018;-52
2022/10/07 14:04:01;;;;;;;8.52;3.58;;;20.50;82.90;;;;;;5013113;28;20509;-51
2022/10/07 14:06:49;;;;;;;;;;;20.60;82.30;;;;;;5015583;28;20022;-55
2022/10/07 14:09:47;;;;;;;7.32;3.55;;;20.70;82.00;;;;;;5015658;28;19912;-54
2022/10/07 14:12:38;;;;;;;9.88;3.75;;;20.90;82.00;;;;;;5013886;28;20033;-53
2022/10/07 14:15:28;;;;;;;5.75;3.42;;;21.20;81.40;;;;;;5013834;28;20026;-50
2022/10/07 14:18:16;;;;;;;5.95;3.40;;;21.30;81.20;;;;;;5013642;28;20580;-50
2022/10/07 14:21:15;;;;;;;6.82;3.53;;;21.10;80.80;;;;;;5012520;28;20026;-50
2022/10/07 14:24:08;;;;;;;7.43;3.10;;;21.30;80.90;;;;;;5013029;28;20022;-53
2022/10/07 14:26:55;;;;;;;8.48;3.60;;;21.40;80.90;;;;;;5013113;28;20386;-50
2022/10/07 14:29:41;;;;;;;5.97;3.08;;;21.80;80.20;;;;;;4985364;28;20036;-49
2022/10/07 14:35:32;;;;;;;7.05;3.72;;;22.20;78.30;;;;;;5012901;28;20516;-54
2022/10/07 14:38:26;;;;;;;8.50;3.50;;;22.40;78.30;;;;;;5013440;28;20041;-54
2022/10/07 14:41:14;;;;;;;7.82;3.47;;;22.60;77.90;;;;;;5013466;28;20022;-56
2022/10/07 14:44:01;;;;;;;8.75;3.63;;;22.50;78.20;;;;;;5012685;28;20037;-54
2022/10/07 14:46:47;;;;;;;6.47;3.15;;;22.70;77.70;;;;;;5012728;28;20022;-52
2022/10/07 14:49:35;;;;;;;5.45;3.22;;;23.10;76.20;;;;;;5011796;28;20018;-54
2022/10/07 14:52:31;;;;;;;9.05;3.75;;;23.30;76.10;;;;;;5013802;28;20026;-52
2022/10/07 14:55:19;;;;;;;6.10;3.10;;;23.80;75.00;;;;;;5012240;28;20018;-55
2022/10/07 14:58:07;;;;;;;7.55;3.30;;;24.10;74.00;;;;;;5012127;28;20026;-52
2022/10/07 15:00:53;;;;;;;6.78;2.97;;;24.20;73.60;;;;;;5012018;28;20041;-55
2022/10/07 15:03:39;;;;;;;5.60;2.90;;;23.60;74.00;;;;;;5011551;28;20040;-49